sensor_id;sensor_type;location;lat;lon;timestamp;P1;durP1;ratioP1;P2;durP2;ratioP2
62071;SDS011;48031;48.542;13.232;2022-10-22T00:03:35;7.18;;;4.63;;
62071;SDS011;48031;48.542;13.232;2022-10-22T00:07:37;4.22;;;2.83;;
62071;SDS011;48031;48.542;13.232;2022-10-22T00:11:40;4.55;;;3.33;;
62071;SDS011;48031;48.542;13.232;2022-10-22T00:15:42;6.43;;;4.10;;
62071;SDS011;48031;48.542;13.232;2022-10-22T00:19:44;5.93;;;3.47;;
62071;SDS011;48031;48.542;13.232;2022-10-22T00:23:46;6.18;;;4.80;;
62071;SDS011;48031;48.542;13.232;2022-10-22T00:27:48;5.40;;;3.42;;
62071;SDS011;48031;48.542;13.232;2022-10-22T00:31:50;5.70;;;3.20;;
62071;SDS011;48031;48.542;13.232;2022-10-22T00:35:52;3.05;;;2.63;;
62071;SDS011;48031;48.542;13.232;2022-10-22T00:39:53;4.63;;;3.30;;
62071;SDS011;48031;48.542;13.232;2022-10-22T00:44:02;5.32;;;3.42;;
62071;SDS011;48031;48.542;13.232;2022-10-22T00:48:12;4.78;;;3.42;;
62071;SDS011;48031;48.542;13.232;2022-10-22T00:52:27;5.05;;;3.15;;
62071;SDS011;48031;48.542;13.232;2022-10-22T00:56:29;4.75;;;3.50;;
62071;SDS011;48031;48.542;13.232;2022-10-22T01:00:31;5.43;;;3.65;;
62071;SDS011;48031;48.542;13.232;2022-10-22T01:04:33;4.88;;;3.65;;
62071;SDS011;48031;48.542;13.232;2022-10-22T01:12:54;3.88;;;2.75;;
62071;SDS011;48031;48.542;13.232;2022-10-22T01:27:39;5.38;;;2.80;;
62071;SDS011;48031;48.542;13.232;2022-10-22T01:31:47;4.15;;;3.22;;
62071;SDS011;48031;48.542;13.232;2022-10-22T01:35:54;4.03;;;2.67;;
62071;SDS011;48031;48.542;13.232;2022-10-22T01:39:58;3.45;;;3.05;;
62071;SDS011;48031;48.542;13.232;2022-10-22T01:44:01;5.32;;;3.58;;
62071;SDS011;48031;48.542;13.232;2022-10-22T01:57:10;4.45;;;3.30;;
62071;SDS011;48031;48.542;13.232;2022-10-22T02:09:41;8.80;;;4.43;;
62071;SDS011;48031;48.542;13.232;2022-10-22T02:13:46;7.63;;;4.90;;
62071;SDS011;48031;48.542;13.232;2022-10-22T02:17:51;7.05;;;4.85;;
62071;SDS011;48031;48.542;13.232;2022-10-22T02:21:55;7.60;;;4.53;;
62071;SDS011;48031;48.542;13.232;2022-10-22T02:26:01;5.05;;;3.80;;
62071;SDS011;48031;48.542;13.232;2022-10-22T02:30:11;5.60;;;3.88;;
62071;SDS011;48031;48.542;13.232;2022-10-22T02:34:20;12.65;;;6.90;;
62071;SDS011;48031;48.542;13.232;2022-10-22T02:38:26;10.90;;;5.93;;
62071;SDS011;48031;48.542;13.232;2022-10-22T02:42:29;13.25;;;7.95;;
62071;SDS011;48031;48.542;13.232;2022-10-22T02:46:31;10.27;;;6.68;;
62071;SDS011;48031;48.542;13.232;2022-10-22T02:50:33;13.52;;;8.10;;
62071;SDS011;48031;48.542;13.232;2022-10-22T02:54:35;9.82;;;5.85;;
62071;SDS011;48031;48.542;13.232;2022-10-22T02:58:37;6.20;;;4.13;;
62071;SDS011;48031;48.542;13.232;2022-10-22T03:02:38;4.57;;;3.38;;
62071;SDS011;48031;48.542;13.232;2022-10-22T03:06:40;5.53;;;3.47;;
62071;SDS011;48031;48.542;13.232;2022-10-22T03:10:45;4.80;;;3.67;;
62071;SDS011;48031;48.542;13.232;2022-10-22T03:14:48;6.95;;;4.72;;
62071;SDS011;48031;48.542;13.232;2022-10-22T03:18:50;5.03;;;3.78;;
62071;SDS011;48031;48.542;13.232;2022-10-22T03:22:52;5.95;;;4.10;;
62071;SDS011;48031;48.542;13.232;2022-10-22T03:26:54;5.22;;;3.13;;
62071;SDS011;48031;48.542;13.232;2022-10-22T03:30:56;4.32;;;2.88;;
62071;SDS011;48031;48.542;13.232;2022-10-22T03:34:58;4.07;;;2.65;;
62071;SDS011;48031;48.542;13.232;2022-10-22T03:39:05;5.03;;;3.17;;
62071;SDS011;48031;48.542;13.232;2022-10-22T03:43:08;4.07;;;2.90;;
62071;SDS011;48031;48.542;13.232;2022-10-22T03:47:13;4.53;;;3.38;;
62071;SDS011;48031;48.542;13.232;2022-10-22T03:51:14;6.43;;;4.28;;
62071;SDS011;48031;48.542;13.232;2022-10-22T03:55:16;5.47;;;3.75;;
62071;SDS011;48031;48.542;13.232;2022-10-22T03:59:18;7.55;;;4.38;;
62071;SDS011;48031;48.542;13.232;2022-10-22T04:03:20;6.50;;;4.35;;
62071;SDS011;48031;48.542;13.232;2022-10-22T04:07:21;4.50;;;3.47;;
62071;SDS011;48031;48.542;13.232;2022-10-22T04:11:23;7.70;;;4.40;;
62071;SDS011;48031;48.542;13.232;2022-10-22T04:15:25;7.65;;;4.88;;
62071;SDS011;48031;48.542;13.232;2022-10-22T04:19:28;4.72;;;3.30;;
62071;SDS011;48031;48.542;13.232;2022-10-22T04:23:30;9.15;;;5.43;;
62071;SDS011;48031;48.542;13.232;2022-10-22T04:27:32;11.90;;;7.18;;
62071;SDS011;48031;48.542;13.232;2022-10-22T04:31:34;12.23;;;6.95;;
62071;SDS011;48031;48.542;13.232;2022-10-22T04:35:37;11.40;;;7.22;;
62071;SDS011;48031;48.542;13.232;2022-10-22T04:39:40;11.63;;;7.45;;
62071;SDS011;48031;48.542;13.232;2022-10-22T04:43:42;8.57;;;5.28;;
62071;SDS011;48031;48.542;13.232;2022-10-22T04:47:44;10.52;;;6.20;;
62071;SDS011;48031;48.542;13.232;2022-10-22T04:51:46;8.77;;;5.72;;
62071;SDS011;48031;48.542;13.232;2022-10-22T04:55:47;9.68;;;6.13;;
62071;SDS011;48031;48.542;13.232;2022-10-22T04:59:49;9.18;;;6.30;;
62071;SDS011;48031;48.542;13.232;2022-10-22T05:03:52;10.40;;;6.63;;
62071;SDS011;48031;48.542;13.232;2022-10-22T05:07:54;14.20;;;8.20;;
62071;SDS011;48031;48.542;13.232;2022-10-22T05:11:56;10.45;;;7.13;;
62071;SDS011;48031;48.542;13.232;2022-10-22T05:15:59;11.43;;;7.00;;
62071;SDS011;48031;48.542;13.232;2022-10-22T05:20:03;13.75;;;9.18;;
62071;SDS011;48031;48.542;13.232;2022-10-22T05:24:05;10.48;;;6.43;;
62071;SDS011;48031;48.542;13.232;2022-10-22T05:28:07;8.02;;;5.30;;
62071;SDS011;48031;48.542;13.232;2022-10-22T05:32:09;8.68;;;6.15;;
62071;SDS011;48031;48.542;13.232;2022-10-22T05:36:12;16.40;;;10.38;;
62071;SDS011;48031;48.542;13.232;2022-10-22T05:40:15;19.40;;;12.48;;
62071;SDS011;48031;48.542;13.232;2022-10-22T05:44:31;21.38;;;13.30;;
62071;SDS011;48031;48.542;13.232;2022-10-22T05:48:33;20.35;;;12.05;;
62071;SDS011;48031;48.542;13.232;2022-10-22T05:52:35;20.98;;;12.82;;
62071;SDS011;48031;48.542;13.232;2022-10-22T05:56:37;21.20;;;13.13;;
62071;SDS011;48031;48.542;13.232;2022-10-22T06:00:39;21.48;;;12.95;;
62071;SDS011;48031;48.542;13.232;2022-10-22T06:04:41;17.48;;;11.73;;
62071;SDS011;48031;48.542;13.232;2022-10-22T06:08:43;18.23;;;11.20;;
62071;SDS011;48031;48.542;13.232;2022-10-22T06:12:46;19.10;;;11.98;;
62071;SDS011;48031;48.542;13.232;2022-10-22T06:16:48;22.52;;;11.95;;
62071;SDS011;48031;48.542;13.232;2022-10-22T06:20:51;10.80;;;7.20;;
62071;SDS011;48031;48.542;13.232;2022-10-22T06:24:52;11.80;;;7.40;;
62071;SDS011;48031;48.542;13.232;2022-10-22T06:28:54;12.15;;;8.07;;
62071;SDS011;48031;48.542;13.232;2022-10-22T06:32:57;17.00;;;10.70;;
62071;SDS011;48031;48.542;13.232;2022-10-22T06:36:58;14.98;;;9.45;;
62071;SDS011;48031;48.542;13.232;2022-10-22T06:41:01;16.35;;;9.77;;
62071;SDS011;48031;48.542;13.232;2022-10-22T06:45:06;13.70;;;8.80;;
62071;SDS011;48031;48.542;13.232;2022-10-22T06:49:11;12.07;;;7.53;;
62071;SDS011;48031;48.542;13.232;2022-10-22T06:53:14;9.65;;;6.07;;
62071;SDS011;48031;48.542;13.232;2022-10-22T06:57:16;8.95;;;6.03;;
62071;SDS011;48031;48.542;13.232;2022-10-22T07:01:19;8.57;;;5.70;;
62071;SDS011;48031;48.542;13.232;2022-10-22T07:05:23;11.15;;;6.45;;
62071;SDS011;48031;48.542;13.232;2022-10-22T07:09:24;6.45;;;4.22;;
62071;SDS011;48031;48.542;13.232;2022-10-22T07:13:26;5.78;;;3.88;;
62071;SDS011;48031;48.542;13.232;2022-10-22T07:17:28;4.55;;;3.15;;
62071;SDS011;48031;48.542;13.232;2022-10-22T07:21:30;3.38;;;2.83;;
62071;SDS011;48031;48.542;13.232;2022-10-22T07:25:32;10.30;;;6.15;;
62071;SDS011;48031;48.542;13.232;2022-10-22T07:29:34;6.53;;;4.70;;
62071;SDS011;48031;48.542;13.232;2022-10-22T07:33:36;6.10;;;3.70;;
62071;SDS011;48031;48.542;13.232;2022-10-22T07:37:38;4.38;;;2.95;;
62071;SDS011;48031;48.542;13.232;2022-10-22T07:41:40;3.63;;;2.80;;
62071;SDS011;48031;48.542;13.232;2022-10-22T07:45:42;4.40;;;2.90;;
62071;SDS011;48031;48.542;13.232;2022-10-22T07:49:43;4.72;;;3.20;;
62071;SDS011;48031;48.542;13.232;2022-10-22T07:53:45;4.85;;;3.33;;
62071;SDS011;48031;48.542;13.232;2022-10-22T07:57:47;3.65;;;3.22;;
62071;SDS011;48031;48.542;13.232;2022-10-22T08:01:48;7.45;;;4.72;;
62071;SDS011;48031;48.542;13.232;2022-10-22T08:05:50;8.35;;;5.45;;
62071;SDS011;48031;48.542;13.232;2022-10-22T08:09:52;9.75;;;5.90;;
62071;SDS011;48031;48.542;13.232;2022-10-22T08:13:54;9.60;;;7.05;;
62071;SDS011;48031;48.542;13.232;2022-10-22T08:17:55;8.48;;;6.22;;
62071;SDS011;48031;48.542;13.232;2022-10-22T08:21:57;12.07;;;6.07;;
62071;SDS011;48031;48.542;13.232;2022-10-22T08:25:59;6.78;;;4.65;;
62071;SDS011;48031;48.542;13.232;2022-10-22T08:30:03;8.25;;;5.80;;
62071;SDS011;48031;48.542;13.232;2022-10-22T08:34:06;5.68;;;4.20;;
62071;SDS011;48031;48.542;13.232;2022-10-22T08:38:08;4.05;;;3.28;;
62071;SDS011;48031;48.542;13.232;2022-10-22T08:42:20;3.85;;;3.20;;
62071;SDS011;48031;48.542;13.232;2022-10-22T08:50:57;3.45;;;3.00;;
62071;SDS011;48031;48.542;13.232;2022-10-22T08:54:59;4.28;;;2.35;;
62071;SDS011;48031;48.542;13.232;2022-10-22T08:59:45;4.35;;;2.00;;
62071;SDS011;48031;48.542;13.232;2022-10-22T09:07:44;2.47;;;1.90;;
62071;SDS011;48031;48.542;13.232;2022-10-22T09:11:50;1.38;;;1.27;;
62071;SDS011;48031;48.542;13.232;2022-10-22T09:15:58;3.63;;;1.95;;
62071;SDS011;48031;48.542;13.232;2022-10-22T09:20:10;12.10;;;4.78;;
62071;SDS011;48031;48.542;13.232;2022-10-22T09:28:42;4.78;;;2.58;;
62071;SDS011;48031;48.542;13.232;2022-10-22T09:32:44;2.20;;;1.75;;
62071;SDS011;48031;48.542;13.232;2022-10-22T09:36:46;1.90;;;1.50;;
62071;SDS011;48031;48.542;13.232;2022-10-22T09:40:49;1.40;;;1.30;;
62071;SDS011;48031;48.542;13.232;2022-10-22T09:44:53;1.60;;;1.48;;
62071;SDS011;48031;48.542;13.232;2022-10-22T09:49:08;2.80;;;1.30;;
62071;SDS011;48031;48.542;13.232;2022-10-22T09:53:18;3.42;;;1.50;;
62071;SDS011;48031;48.542;13.232;2022-10-22T09:57:22;3.80;;;1.27;;
62071;SDS011;48031;48.542;13.232;2022-10-22T10:01:27;1.75;;;1.30;;
62071;SDS011;48031;48.542;13.232;2022-10-22T10:05:33;1.95;;;1.27;;
62071;SDS011;48031;48.542;13.232;2022-10-22T10:09:38;1.60;;;1.27;;
62071;SDS011;48031;48.542;13.232;2022-10-22T10:22:04;1.13;;;0.98;;
62071;SDS011;48031;48.542;13.232;2022-10-22T10:26:30;1.30;;;1.20;;
62071;SDS011;48031;48.542;13.232;2022-10-22T10:39:26;3.88;;;2.00;;
62071;SDS011;48031;48.542;13.232;2022-10-22T10:47:55;1.30;;;1.20;;
62071;SDS011;48031;48.542;13.232;2022-10-22T11:01:02;1.23;;;1.13;;
62071;SDS011;48031;48.542;13.232;2022-10-22T11:09:47;1.20;;;1.10;;
62071;SDS011;48031;48.542;13.232;2022-10-22T11:18:22;1.20;;;1.10;;
62071;SDS011;48031;48.542;13.232;2022-10-22T11:22:31;1.42;;;1.20;;
62071;SDS011;48031;48.542;13.232;2022-10-22T11:26:43;1.25;;;1.13;;
62071;SDS011;48031;48.542;13.232;2022-10-22T11:30:56;4.07;;;2.20;;
62071;SDS011;48031;48.542;13.232;2022-10-22T11:35:02;1.98;;;1.33;;
62071;SDS011;48031;48.542;13.232;2022-10-22T11:39:16;1.10;;;1.10;;
62071;SDS011;48031;48.542;13.232;2022-10-22T11:43:32;1.40;;;1.30;;
62071;SDS011;48031;48.542;13.232;2022-10-22T11:47:56;1.10;;;1.00;;
62071;SDS011;48031;48.542;13.232;2022-10-22T11:52:04;1.33;;;1.08;;
62071;SDS011;48031;48.542;13.232;2022-10-22T11:56:26;1.00;;;1.00;;
62071;SDS011;48031;48.542;13.232;2022-10-22T12:00:45;1.92;;;1.20;;
62071;SDS011;48031;48.542;13.232;2022-10-22T12:04:49;1.00;;;1.00;;
62071;SDS011;48031;48.542;13.232;2022-10-22T12:08:55;1.25;;;1.08;;
62071;SDS011;48031;48.542;13.232;2022-10-22T12:13:21;0.80;;;0.80;;
62071;SDS011;48031;48.542;13.232;2022-10-22T12:17:24;3.13;;;1.60;;
62071;SDS011;48031;48.542;13.232;2022-10-22T12:21:29;1.30;;;1.20;;
62071;SDS011;48031;48.542;13.232;2022-10-22T12:25:34;1.50;;;1.40;;
62071;SDS011;48031;48.542;13.232;2022-10-22T12:29:36;2.15;;;0.98;;
62071;SDS011;48031;48.542;13.232;2022-10-22T12:33:38;3.50;;;1.60;;
62071;SDS011;48031;48.542;13.232;2022-10-22T12:37:40;0.93;;;0.93;;
62071;SDS011;48031;48.542;13.232;2022-10-22T12:41:42;1.75;;;0.90;;
62071;SDS011;48031;48.542;13.232;2022-10-22T12:45:45;1.80;;;1.15;;
62071;SDS011;48031;48.542;13.232;2022-10-22T12:49:48;1.00;;;0.90;;
62071;SDS011;48031;48.542;13.232;2022-10-22T12:53:51;1.20;;;1.10;;
62071;SDS011;48031;48.542;13.232;2022-10-22T12:57:54;1.08;;;0.70;;
62071;SDS011;48031;48.542;13.232;2022-10-22T13:01:56;0.60;;;0.60;;
62071;SDS011;48031;48.542;13.232;2022-10-22T13:10:21;1.10;;;0.60;;
62071;SDS011;48031;48.542;13.232;2022-10-22T13:14:31;0.75;;;0.60;;
62071;SDS011;48031;48.542;13.232;2022-10-22T13:18:37;0.70;;;0.70;;
62071;SDS011;48031;48.542;13.232;2022-10-22T13:22:40;0.60;;;0.60;;
62071;SDS011;48031;48.542;13.232;2022-10-22T13:26:53;0.70;;;0.70;;
62071;SDS011;48031;48.542;13.232;2022-10-22T13:30:56;1.02;;;0.70;;
62071;SDS011;48031;48.542;13.232;2022-10-22T13:35:01;0.70;;;0.70;;
62071;SDS011;48031;48.542;13.232;2022-10-22T13:39:05;1.40;;;0.70;;
62071;SDS011;48031;48.542;13.232;2022-10-22T13:43:09;0.60;;;0.60;;
62071;SDS011;48031;48.542;13.232;2022-10-22T13:47:16;1.05;;;0.80;;
62071;SDS011;48031;48.542;13.232;2022-10-22T13:51:23;1.30;;;0.80;;
62071;SDS011;48031;48.542;13.232;2022-10-22T13:55:28;0.63;;;0.63;;
62071;SDS011;48031;48.542;13.232;2022-10-22T13:59:31;0.93;;;0.90;;
62071;SDS011;48031;48.542;13.232;2022-10-22T14:03:33;1.35;;;1.25;;
62071;SDS011;48031;48.542;13.232;2022-10-22T14:07:37;3.97;;;3.67;;
62071;SDS011;48031;48.542;13.232;2022-10-22T14:11:40;2.28;;;2.08;;
62071;SDS011;48031;48.542;13.232;2022-10-22T14:15:42;1.20;;;1.10;;
62071;SDS011;48031;48.542;13.232;2022-10-22T14:19:46;1.63;;;1.52;;
62071;SDS011;48031;48.542;13.232;2022-10-22T14:23:49;0.60;;;0.60;;
62071;SDS011;48031;48.542;13.232;2022-10-22T14:27:53;0.80;;;0.70;;
62071;SDS011;48031;48.542;13.232;2022-10-22T14:31:55;0.75;;;0.70;;
62071;SDS011;48031;48.542;13.232;2022-10-22T14:35:57;0.95;;;0.70;;
62071;SDS011;48031;48.542;13.232;2022-10-22T14:40:02;0.50;;;0.50;;
62071;SDS011;48031;48.542;13.232;2022-10-22T14:44:04;1.45;;;0.68;;
62071;SDS011;48031;48.542;13.232;2022-10-22T14:48:05;1.13;;;0.70;;
62071;SDS011;48031;48.542;13.232;2022-10-22T14:52:08;0.60;;;0.60;;
62071;SDS011;48031;48.542;13.232;2022-10-22T14:56:16;1.55;;;0.60;;
62071;SDS011;48031;48.542;13.232;2022-10-22T15:00:21;0.52;;;0.52;;
62071;SDS011;48031;48.542;13.232;2022-10-22T15:04:23;1.33;;;0.90;;
62071;SDS011;48031;48.542;13.232;2022-10-22T15:08:27;0.80;;;0.80;;
62071;SDS011;48031;48.542;13.232;2022-10-22T15:12:29;2.80;;;1.10;;
62071;SDS011;48031;48.542;13.232;2022-10-22T15:16:31;1.17;;;0.90;;
62071;SDS011;48031;48.542;13.232;2022-10-22T15:20:32;1.63;;;0.70;;
62071;SDS011;48031;48.542;13.232;2022-10-22T15:24:35;0.80;;;0.80;;
62071;SDS011;48031;48.542;13.232;2022-10-22T15:28:37;0.60;;;0.60;;
62071;SDS011;48031;48.542;13.232;2022-10-22T15:32:40;0.52;;;0.52;;
62071;SDS011;48031;48.542;13.232;2022-10-22T15:36:42;1.30;;;0.70;;
62071;SDS011;48031;48.542;13.232;2022-10-22T15:40:43;0.60;;;0.60;;
62071;SDS011;48031;48.542;13.232;2022-10-22T15:44:45;0.57;;;0.57;;
62071;SDS011;48031;48.542;13.232;2022-10-22T15:48:47;0.93;;;0.55;;
62071;SDS011;48031;48.542;13.232;2022-10-22T15:52:49;2.47;;;0.93;;
62071;SDS011;48031;48.542;13.232;2022-10-22T15:56:50;0.90;;;0.90;;
62071;SDS011;48031;48.542;13.232;2022-10-22T16:00:52;2.78;;;0.70;;
62071;SDS011;48031;48.542;13.232;2022-10-22T16:04:54;0.65;;;0.65;;
62071;SDS011;48031;48.542;13.232;2022-10-22T16:08:56;0.60;;;0.60;;
62071;SDS011;48031;48.542;13.232;2022-10-22T16:12:59;0.63;;;0.63;;
62071;SDS011;48031;48.542;13.232;2022-10-22T16:17:01;0.70;;;0.70;;
62071;SDS011;48031;48.542;13.232;2022-10-22T16:21:03;1.85;;;0.70;;
62071;SDS011;48031;48.542;13.232;2022-10-22T16:25:05;1.20;;;0.80;;
62071;SDS011;48031;48.542;13.232;2022-10-22T16:29:07;1.02;;;0.77;;
62071;SDS011;48031;48.542;13.232;2022-10-22T16:33:11;0.77;;;0.77;;
62071;SDS011;48031;48.542;13.232;2022-10-22T16:37:13;0.82;;;0.82;;
62071;SDS011;48031;48.542;13.232;2022-10-22T16:41:18;1.88;;;1.20;;
62071;SDS011;48031;48.542;13.232;2022-10-22T16:45:21;3.97;;;2.25;;
62071;SDS011;48031;48.542;13.232;2022-10-22T16:49:23;3.70;;;1.40;;
62071;SDS011;48031;48.542;13.232;2022-10-22T16:53:25;2.10;;;1.65;;
62071;SDS011;48031;48.542;13.232;2022-10-22T16:57:27;2.00;;;1.80;;
62071;SDS011;48031;48.542;13.232;2022-10-22T17:01:29;1.95;;;1.30;;
62071;SDS011;48031;48.542;13.232;2022-10-22T17:05:31;1.63;;;1.52;;
62071;SDS011;48031;48.542;13.232;2022-10-22T17:09:36;3.25;;;2.08;;
62071;SDS011;48031;48.542;13.232;2022-10-22T17:13:40;1.65;;;1.55;;
62071;SDS011;48031;48.542;13.232;2022-10-22T17:17:42;1.55;;;1.42;;
62071;SDS011;48031;48.542;13.232;2022-10-22T17:21:48;3.35;;;1.95;;
62071;SDS011;48031;48.542;13.232;2022-10-22T17:25:56;1.80;;;1.63;;
62071;SDS011;48031;48.542;13.232;2022-10-22T17:29:59;2.33;;;2.00;;
62071;SDS011;48031;48.542;13.232;2022-10-22T17:34:00;2.50;;;2.10;;
62071;SDS011;48031;48.542;13.232;2022-10-22T17:38:02;3.08;;;2.10;;
62071;SDS011;48031;48.542;13.232;2022-10-22T17:42:04;2.75;;;1.95;;
62071;SDS011;48031;48.542;13.232;2022-10-22T17:46:07;2.88;;;2.10;;
62071;SDS011;48031;48.542;13.232;2022-10-22T17:54:15;2.40;;;2.17;;
62071;SDS011;48031;48.542;13.232;2022-10-22T17:58:17;3.55;;;2.50;;
62071;SDS011;48031;48.542;13.232;2022-10-22T18:02:19;2.88;;;2.25;;
62071;SDS011;48031;48.542;13.232;2022-10-22T18:06:20;2.35;;;2.15;;
62071;SDS011;48031;48.542;13.232;2022-10-22T18:10:23;1.80;;;1.60;;
62071;SDS011;48031;48.542;13.232;2022-10-22T18:14:25;2.53;;;2.20;;
62071;SDS011;48031;48.542;13.232;2022-10-22T18:18:26;3.35;;;2.50;;
62071;SDS011;48031;48.542;13.232;2022-10-22T18:22:29;3.47;;;2.40;;
62071;SDS011;48031;48.542;13.232;2022-10-22T18:26:32;2.58;;;2.15;;
62071;SDS011;48031;48.542;13.232;2022-10-22T18:30:34;2.90;;;2.60;;
62071;SDS011;48031;48.542;13.232;2022-10-22T18:34:38;3.05;;;2.60;;
62071;SDS011;48031;48.542;13.232;2022-10-22T18:38:40;3.05;;;2.20;;
62071;SDS011;48031;48.542;13.232;2022-10-22T18:42:42;1.77;;;1.67;;
62071;SDS011;48031;48.542;13.232;2022-10-22T18:46:45;2.20;;;1.98;;
62071;SDS011;48031;48.542;13.232;2022-10-22T18:50:52;1.52;;;1.42;;
62071;SDS011;48031;48.542;13.232;2022-10-22T18:55:08;1.83;;;1.70;;
62071;SDS011;48031;48.542;13.232;2022-10-22T18:59:14;1.67;;;1.55;;
62071;SDS011;48031;48.542;13.232;2022-10-22T19:03:18;5.03;;;2.45;;
62071;SDS011;48031;48.542;13.232;2022-10-22T19:07:19;3.67;;;2.63;;
62071;SDS011;48031;48.542;13.232;2022-10-22T19:11:21;3.45;;;2.58;;
62071;SDS011;48031;48.542;13.232;2022-10-22T19:15:23;2.42;;;2.10;;
62071;SDS011;48031;48.542;13.232;2022-10-22T19:19:25;2.40;;;2.08;;
62071;SDS011;48031;48.542;13.232;2022-10-22T19:23:27;2.13;;;1.92;;
62071;SDS011;48031;48.542;13.232;2022-10-22T19:27:30;3.47;;;2.47;;
62071;SDS011;48031;48.542;13.232;2022-10-22T19:31:32;2.97;;;2.22;;
62071;SDS011;48031;48.542;13.232;2022-10-22T19:35:36;1.63;;;1.48;;
62071;SDS011;48031;48.542;13.232;2022-10-22T19:39:38;1.88;;;1.63;;
62071;SDS011;48031;48.542;13.232;2022-10-22T19:43:40;2.10;;;1.75;;
62071;SDS011;48031;48.542;13.232;2022-10-22T19:47:43;2.15;;;1.63;;
62071;SDS011;48031;48.542;13.232;2022-10-22T19:51:45;1.73;;;1.30;;
62071;SDS011;48031;48.542;13.232;2022-10-22T19:55:46;1.60;;;1.50;;
62071;SDS011;48031;48.542;13.232;2022-10-22T19:59:48;1.40;;;1.30;;
62071;SDS011;48031;48.542;13.232;2022-10-22T20:03:50;1.17;;;1.08;;
62071;SDS011;48031;48.542;13.232;2022-10-22T20:07:52;1.70;;;1.60;;
62071;SDS011;48031;48.542;13.232;2022-10-22T20:11:54;4.63;;;2.80;;
62071;SDS011;48031;48.542;13.232;2022-10-22T20:15:56;4.40;;;3.60;;
62071;SDS011;48031;48.542;13.232;2022-10-22T20:19:57;3.25;;;2.55;;
62071;SDS011;48031;48.542;13.232;2022-10-22T20:24:00;3.85;;;2.90;;
62071;SDS011;48031;48.542;13.232;2022-10-22T20:28:02;2.08;;;1.80;;
62071;SDS011;48031;48.542;13.232;2022-10-22T20:32:04;1.63;;;1.52;;
62071;SDS011;48031;48.542;13.232;2022-10-22T20:36:12;1.38;;;1.27;;
62071;SDS011;48031;48.542;13.232;2022-10-22T20:44:18;1.40;;;1.30;;
62071;SDS011;48031;48.542;13.232;2022-10-22T20:48:19;1.92;;;1.20;;
62071;SDS011;48031;48.542;13.232;2022-10-22T20:52:22;1.73;;;1.50;;
62071;SDS011;48031;48.542;13.232;2022-10-22T20:56:23;2.97;;;1.00;;
62071;SDS011;48031;48.542;13.232;2022-10-22T21:00:26;1.40;;;1.30;;
62071;SDS011;48031;48.542;13.232;2022-10-22T21:04:28;1.58;;;1.48;;
62071;SDS011;48031;48.542;13.232;2022-10-22T21:08:31;2.00;;;1.55;;
62071;SDS011;48031;48.542;13.232;2022-10-22T21:12:33;2.33;;;1.88;;
62071;SDS011;48031;48.542;13.232;2022-10-22T21:16:35;2.63;;;2.10;;
62071;SDS011;48031;48.542;13.232;2022-10-22T21:20:40;3.55;;;2.50;;
62071;SDS011;48031;48.542;13.232;2022-10-22T21:24:42;4.03;;;3.08;;
62071;SDS011;48031;48.542;13.232;2022-10-22T21:28:44;2.13;;;1.92;;
62071;SDS011;48031;48.542;13.232;2022-10-22T21:32:46;2.35;;;1.80;;
62071;SDS011;48031;48.542;13.232;2022-10-22T21:36:48;2.55;;;1.40;;
62071;SDS011;48031;48.542;13.232;2022-10-22T21:40:49;1.75;;;1.63;;
62071;SDS011;48031;48.542;13.232;2022-10-22T21:44:52;1.50;;;1.40;;
62071;SDS011;48031;48.542;13.232;2022-10-22T21:52:56;4.22;;;1.70;;
62071;SDS011;48031;48.542;13.232;2022-10-22T21:56:58;2.83;;;2.10;;
62071;SDS011;48031;48.542;13.232;2022-10-22T22:01:01;1.90;;;1.67;;
62071;SDS011;48031;48.542;13.232;2022-10-22T22:05:03;1.85;;;1.65;;
62071;SDS011;48031;48.542;13.232;2022-10-22T22:09:05;2.53;;;1.38;;
62071;SDS011;48031;48.542;13.232;2022-10-22T22:13:07;1.67;;;1.58;;
62071;SDS011;48031;48.542;13.232;2022-10-22T22:17:09;2.83;;;2.15;;
62071;SDS011;48031;48.542;13.232;2022-10-22T22:21:12;1.95;;;1.80;;
62071;SDS011;48031;48.542;13.232;2022-10-22T22:25:16;1.55;;;1.45;;
62071;SDS011;48031;48.542;13.232;2022-10-22T22:29:18;1.90;;;1.70;;
62071;SDS011;48031;48.542;13.232;2022-10-22T22:33:20;2.53;;;1.98;;
62071;SDS011;48031;48.542;13.232;2022-10-22T22:37:22;2.35;;;1.80;;
62071;SDS011;48031;48.542;13.232;2022-10-22T22:41:24;1.85;;;1.67;;
62071;SDS011;48031;48.542;13.232;2022-10-22T22:45:25;1.50;;;1.40;;
62071;SDS011;48031;48.542;13.232;2022-10-22T22:49:27;2.03;;;1.83;;
62071;SDS011;48031;48.542;13.232;2022-10-22T22:53:29;1.95;;;1.73;;
62071;SDS011;48031;48.542;13.232;2022-10-22T22:57:31;2.08;;;1.88;;
62071;SDS011;48031;48.542;13.232;2022-10-22T23:01:39;3.05;;;2.25;;
62071;SDS011;48031;48.542;13.232;2022-10-22T23:05:41;2.00;;;1.80;;
62071;SDS011;48031;48.542;13.232;2022-10-22T23:09:43;1.63;;;1.52;;
62071;SDS011;48031;48.542;13.232;2022-10-22T23:13:45;2.03;;;1.80;;
62071;SDS011;48031;48.542;13.232;2022-10-22T23:17:48;1.63;;;1.52;;
62071;SDS011;48031;48.542;13.232;2022-10-22T23:21:50;1.42;;;1.27;;
62071;SDS011;48031;48.542;13.232;2022-10-22T23:25:54;1.65;;;1.55;;
62071;SDS011;48031;48.542;13.232;2022-10-22T23:29:56;2.53;;;1.75;;
62071;SDS011;48031;48.542;13.232;2022-10-22T23:33:58;2.60;;;2.15;;
62071;SDS011;48031;48.542;13.232;2022-10-22T23:38:00;1.30;;;1.20;;
62071;SDS011;48031;48.542;13.232;2022-10-22T23:42:02;1.48;;;1.35;;
62071;SDS011;48031;48.542;13.232;2022-10-22T23:46:04;2.22;;;1.60;;
62071;SDS011;48031;48.542;13.232;2022-10-22T23:50:08;3.90;;;1.40;;
62071;SDS011;48031;48.542;13.232;2022-10-22T23:54:11;1.70;;;1.30;;
62071;SDS011;48031;48.542;13.232;2022-10-22T23:58:14;1.60;;;1.50;;
